sensor_id;sensor_type;location;lat;lon;timestamp;P1;durP1;ratioP1;P2;durP2;ratioP2
37955;SDS011;23776;51.592;7.180;2023-06-22T00:00:29;11.65;;;6.90;;
37955;SDS011;23776;51.592;7.180;2023-06-22T00:02:54;13.35;;;6.32;;
37955;SDS011;23776;51.592;7.180;2023-06-22T00:05:20;7.97;;;5.32;;
37955;SDS011;23776;51.592;7.180;2023-06-22T00:07:46;11.00;;;6.38;;
37955;SDS011;23776;51.592;7.180;2023-06-22T00:10:11;13.75;;;6.97;;
37955;SDS011;23776;51.592;7.180;2023-06-22T00:12:37;12.13;;;6.10;;
37955;SDS011;23776;51.592;7.180;2023-06-22T00:15:03;10.38;;;6.20;;
37955;SDS011;23776;51.592;7.180;2023-06-22T00:17:29;12.48;;;6.05;;
37955;SDS011;23776;51.592;7.180;2023-06-22T00:19:54;9.60;;;5.78;;
37955;SDS011;23776;51.592;7.180;2023-06-22T00:22:20;17.00;;;7.30;;
37955;SDS011;23776;51.592;7.180;2023-06-22T00:24:53;12.40;;;6.40;;
37955;SDS011;23776;51.592;7.180;2023-06-22T00:27:20;10.60;;;5.97;;
37955;SDS011;23776;51.592;7.180;2023-06-22T00:29:45;17.35;;;6.10;;
37955;SDS011;23776;51.592;7.180;2023-06-22T00:32:11;10.82;;;6.28;;
37955;SDS011;23776;51.592;7.180;2023-06-22T00:34:36;12.07;;;6.45;;
37955;SDS011;23776;51.592;7.180;2023-06-22T00:37:02;12.10;;;6.25;;
37955;SDS011;23776;51.592;7.180;2023-06-22T00:39:28;14.27;;;6.50;;
37955;SDS011;23776;51.592;7.180;2023-06-22T00:41:53;12.30;;;6.20;;
37955;SDS011;23776;51.592;7.180;2023-06-22T00:44:20;12.05;;;7.43;;
37955;SDS011;23776;51.592;7.180;2023-06-22T00:46:45;13.07;;;6.38;;
37955;SDS011;23776;51.592;7.180;2023-06-22T00:49:11;13.45;;;7.20;;
37955;SDS011;23776;51.592;7.180;2023-06-22T00:51:37;11.43;;;6.68;;
37955;SDS011;23776;51.592;7.180;2023-06-22T00:54:04;12.75;;;6.95;;
37955;SDS011;23776;51.592;7.180;2023-06-22T00:56:30;9.02;;;6.68;;
37955;SDS011;23776;51.592;7.180;2023-06-22T00:58:57;17.33;;;8.07;;
37955;SDS011;23776;51.592;7.180;2023-06-22T01:01:24;13.38;;;6.45;;
37955;SDS011;23776;51.592;7.180;2023-06-22T01:03:50;12.15;;;7.20;;
37955;SDS011;23776;51.592;7.180;2023-06-22T01:06:18;16.27;;;7.18;;
37955;SDS011;23776;51.592;7.180;2023-06-22T01:08:53;13.23;;;7.20;;
37955;SDS011;23776;51.592;7.180;2023-06-22T01:11:36;20.33;;;6.38;;
37955;SDS011;23776;51.592;7.180;2023-06-22T01:14:15;15.25;;;6.95;;
37955;SDS011;23776;51.592;7.180;2023-06-22T01:16:49;14.85;;;8.60;;
37955;SDS011;23776;51.592;7.180;2023-06-22T01:19:35;16.88;;;7.95;;
37955;SDS011;23776;51.592;7.180;2023-06-22T01:22:09;16.02;;;7.72;;
37955;SDS011;23776;51.592;7.180;2023-06-22T01:24:42;12.85;;;7.15;;
37955;SDS011;23776;51.592;7.180;2023-06-22T01:27:25;14.27;;;7.50;;
37955;SDS011;23776;51.592;7.180;2023-06-22T01:30:01;17.15;;;8.75;;
37955;SDS011;23776;51.592;7.180;2023-06-22T01:32:30;11.63;;;7.25;;
37955;SDS011;23776;51.592;7.180;2023-06-22T01:35:01;11.70;;;6.47;;
37955;SDS011;23776;51.592;7.180;2023-06-22T01:37:32;16.42;;;7.97;;
37955;SDS011;23776;51.592;7.180;2023-06-22T01:39:59;12.38;;;6.50;;
37955;SDS011;23776;51.592;7.180;2023-06-22T01:42:26;10.85;;;8.02;;
37955;SDS011;23776;51.592;7.180;2023-06-22T01:44:53;12.27;;;8.40;;
37955;SDS011;23776;51.592;7.180;2023-06-22T01:47:20;15.65;;;9.00;;
37955;SDS011;23776;51.592;7.180;2023-06-22T01:49:46;14.32;;;8.43;;
37955;SDS011;23776;51.592;7.180;2023-06-22T01:52:13;14.15;;;8.15;;
37955;SDS011;23776;51.592;7.180;2023-06-22T01:54:39;14.30;;;8.20;;
37955;SDS011;23776;51.592;7.180;2023-06-22T01:57:05;18.83;;;8.27;;
37955;SDS011;23776;51.592;7.180;2023-06-22T01:59:39;15.13;;;8.27;;
37955;SDS011;23776;51.592;7.180;2023-06-22T02:02:32;12.93;;;7.18;;
37955;SDS011;23776;51.592;7.180;2023-06-22T02:05:07;12.68;;;7.80;;
37955;SDS011;23776;51.592;7.180;2023-06-22T02:10:06;16.63;;;8.15;;
37955;SDS011;23776;51.592;7.180;2023-06-22T02:12:34;12.05;;;7.88;;
37955;SDS011;23776;51.592;7.180;2023-06-22T02:15:01;18.25;;;8.88;;
37955;SDS011;23776;51.592;7.180;2023-06-22T02:17:27;15.25;;;9.35;;
37955;SDS011;23776;51.592;7.180;2023-06-22T02:19:53;13.07;;;8.75;;
37955;SDS011;23776;51.592;7.180;2023-06-22T02:22:19;16.20;;;8.63;;
37955;SDS011;23776;51.592;7.180;2023-06-22T02:24:45;13.38;;;8.60;;
37955;SDS011;23776;51.592;7.180;2023-06-22T02:27:10;16.52;;;9.35;;
37955;SDS011;23776;51.592;7.180;2023-06-22T02:29:36;16.55;;;10.27;;
37955;SDS011;23776;51.592;7.180;2023-06-22T02:32:02;18.38;;;9.43;;
37955;SDS011;23776;51.592;7.180;2023-06-22T02:34:29;16.33;;;9.60;;
37955;SDS011;23776;51.592;7.180;2023-06-22T02:36:54;19.48;;;11.25;;
37955;SDS011;23776;51.592;7.180;2023-06-22T02:39:23;15.95;;;9.25;;
37955;SDS011;23776;51.592;7.180;2023-06-22T02:41:50;18.98;;;9.77;;
37955;SDS011;23776;51.592;7.180;2023-06-22T02:44:17;15.35;;;10.38;;
37955;SDS011;23776;51.592;7.180;2023-06-22T02:46:43;16.75;;;9.35;;
37955;SDS011;23776;51.592;7.180;2023-06-22T02:49:09;16.25;;;10.23;;
37955;SDS011;23776;51.592;7.180;2023-06-22T02:51:35;19.02;;;10.40;;
37955;SDS011;23776;51.592;7.180;2023-06-22T02:54:00;16.48;;;10.27;;
37955;SDS011;23776;51.592;7.180;2023-06-22T02:56:28;18.00;;;10.73;;
37955;SDS011;23776;51.592;7.180;2023-06-22T02:58:55;28.38;;;13.30;;
37955;SDS011;23776;51.592;7.180;2023-06-22T03:01:25;19.70;;;11.13;;
37955;SDS011;23776;51.592;7.180;2023-06-22T03:03:52;15.55;;;10.60;;
37955;SDS011;23776;51.592;7.180;2023-06-22T03:06:18;15.15;;;9.52;;
37955;SDS011;23776;51.592;7.180;2023-06-22T03:08:48;17.90;;;11.25;;
37955;SDS011;23776;51.592;7.180;2023-06-22T03:11:16;15.95;;;10.32;;
37955;SDS011;23776;51.592;7.180;2023-06-22T03:13:42;17.25;;;11.50;;
37955;SDS011;23776;51.592;7.180;2023-06-22T03:16:08;19.10;;;12.07;;
37955;SDS011;23776;51.592;7.180;2023-06-22T03:18:34;20.00;;;12.05;;
37955;SDS011;23776;51.592;7.180;2023-06-22T03:20:59;18.35;;;12.57;;
37955;SDS011;23776;51.592;7.180;2023-06-22T03:23:27;20.63;;;13.13;;
37955;SDS011;23776;51.592;7.180;2023-06-22T03:25:52;21.00;;;13.98;;
37955;SDS011;23776;51.592;7.180;2023-06-22T03:28:20;25.40;;;15.15;;
37955;SDS011;23776;51.592;7.180;2023-06-22T03:30:46;22.35;;;13.30;;
37955;SDS011;23776;51.592;7.180;2023-06-22T03:33:12;20.65;;;13.02;;
37955;SDS011;23776;51.592;7.180;2023-06-22T03:35:38;19.95;;;13.73;;
37955;SDS011;23776;51.592;7.180;2023-06-22T03:38:03;23.70;;;14.38;;
37955;SDS011;23776;51.592;7.180;2023-06-22T03:40:29;23.42;;;13.73;;
37955;SDS011;23776;51.592;7.180;2023-06-22T03:42:55;23.95;;;15.02;;
37955;SDS011;23776;51.592;7.180;2023-06-22T03:45:20;23.58;;;14.30;;
37955;SDS011;23776;51.592;7.180;2023-06-22T03:47:46;20.38;;;12.77;;
37955;SDS011;23776;51.592;7.180;2023-06-22T03:50:12;21.95;;;13.70;;
37955;SDS011;23776;51.592;7.180;2023-06-22T03:52:38;23.35;;;13.10;;
37955;SDS011;23776;51.592;7.180;2023-06-22T03:55:05;21.63;;;13.88;;
37955;SDS011;23776;51.592;7.180;2023-06-22T03:57:31;24.27;;;13.93;;
37955;SDS011;23776;51.592;7.180;2023-06-22T03:59:57;22.00;;;14.18;;
37955;SDS011;23776;51.592;7.180;2023-06-22T04:02:23;19.58;;;12.80;;
37955;SDS011;23776;51.592;7.180;2023-06-22T04:04:48;27.25;;;14.60;;
37955;SDS011;23776;51.592;7.180;2023-06-22T04:07:14;28.42;;;14.20;;
37955;SDS011;23776;51.592;7.180;2023-06-22T04:09:40;27.95;;;15.48;;
37955;SDS011;23776;51.592;7.180;2023-06-22T04:12:06;27.30;;;14.52;;
37955;SDS011;23776;51.592;7.180;2023-06-22T04:14:32;25.35;;;14.88;;
37955;SDS011;23776;51.592;7.180;2023-06-22T04:16:58;23.08;;;14.20;;
37955;SDS011;23776;51.592;7.180;2023-06-22T04:19:24;20.20;;;13.18;;
37955;SDS011;23776;51.592;7.180;2023-06-22T04:21:49;25.40;;;14.73;;
37955;SDS011;23776;51.592;7.180;2023-06-22T04:24:15;23.88;;;14.85;;
37955;SDS011;23776;51.592;7.180;2023-06-22T04:26:40;25.23;;;15.07;;
37955;SDS011;23776;51.592;7.180;2023-06-22T04:29:10;21.63;;;13.05;;
37955;SDS011;23776;51.592;7.180;2023-06-22T04:31:36;28.05;;;16.85;;
37955;SDS011;23776;51.592;7.180;2023-06-22T04:34:05;26.52;;;16.10;;
37955;SDS011;23776;51.592;7.180;2023-06-22T04:36:33;24.58;;;14.52;;
37955;SDS011;23776;51.592;7.180;2023-06-22T04:39:20;22.70;;;13.27;;
37955;SDS011;23776;51.592;7.180;2023-06-22T04:41:46;20.85;;;12.95;;
37955;SDS011;23776;51.592;7.180;2023-06-22T04:44:13;23.58;;;14.85;;
37955;SDS011;23776;51.592;7.180;2023-06-22T04:46:48;23.85;;;14.35;;
37955;SDS011;23776;51.592;7.180;2023-06-22T04:49:29;21.65;;;12.90;;
37955;SDS011;23776;51.592;7.180;2023-06-22T04:51:58;23.33;;;14.90;;
37955;SDS011;23776;51.592;7.180;2023-06-22T04:54:25;22.17;;;14.60;;
37955;SDS011;23776;51.592;7.180;2023-06-22T04:56:51;24.88;;;14.95;;
37955;SDS011;23776;51.592;7.180;2023-06-22T04:59:26;20.13;;;12.80;;
37955;SDS011;23776;51.592;7.180;2023-06-22T05:01:54;22.10;;;12.45;;
37955;SDS011;23776;51.592;7.180;2023-06-22T05:04:24;21.65;;;14.13;;
37955;SDS011;23776;51.592;7.180;2023-06-22T05:06:50;21.33;;;14.18;;
37955;SDS011;23776;51.592;7.180;2023-06-22T05:09:16;26.48;;;14.57;;
37955;SDS011;23776;51.592;7.180;2023-06-22T05:11:43;25.95;;;13.60;;
37955;SDS011;23776;51.592;7.180;2023-06-22T05:14:09;20.73;;;14.80;;
37955;SDS011;23776;51.592;7.180;2023-06-22T05:16:35;23.42;;;14.60;;
37955;SDS011;23776;51.592;7.180;2023-06-22T05:19:02;18.80;;;12.48;;
37955;SDS011;23776;51.592;7.180;2023-06-22T05:21:29;17.83;;;11.98;;
37955;SDS011;23776;51.592;7.180;2023-06-22T05:23:55;23.83;;;12.55;;
37955;SDS011;23776;51.592;7.180;2023-06-22T05:26:24;25.15;;;14.93;;
37955;SDS011;23776;51.592;7.180;2023-06-22T05:28:50;23.02;;;13.25;;
37955;SDS011;23776;51.592;7.180;2023-06-22T05:31:16;24.63;;;16.13;;
37955;SDS011;23776;51.592;7.180;2023-06-22T05:33:44;28.55;;;16.13;;
37955;SDS011;23776;51.592;7.180;2023-06-22T05:36:11;23.67;;;15.20;;
37955;SDS011;23776;51.592;7.180;2023-06-22T05:38:40;19.98;;;13.43;;
37955;SDS011;23776;51.592;7.180;2023-06-22T05:41:06;24.30;;;14.43;;
37955;SDS011;23776;51.592;7.180;2023-06-22T05:43:32;28.80;;;18.33;;
37955;SDS011;23776;51.592;7.180;2023-06-22T05:46:00;23.48;;;14.95;;
37955;SDS011;23776;51.592;7.180;2023-06-22T05:48:26;22.35;;;13.35;;
37955;SDS011;23776;51.592;7.180;2023-06-22T05:50:52;25.70;;;14.80;;
37955;SDS011;23776;51.592;7.180;2023-06-22T05:53:18;22.73;;;13.75;;
37955;SDS011;23776;51.592;7.180;2023-06-22T05:55:44;26.38;;;16.23;;
37955;SDS011;23776;51.592;7.180;2023-06-22T05:58:11;23.27;;;15.55;;
37955;SDS011;23776;51.592;7.180;2023-06-22T06:00:38;22.20;;;13.60;;
37955;SDS011;23776;51.592;7.180;2023-06-22T06:03:04;21.77;;;14.25;;
37955;SDS011;23776;51.592;7.180;2023-06-22T06:05:30;22.85;;;15.43;;
37955;SDS011;23776;51.592;7.180;2023-06-22T06:07:56;20.55;;;14.63;;
37955;SDS011;23776;51.592;7.180;2023-06-22T06:10:22;25.45;;;15.80;;
37955;SDS011;23776;51.592;7.180;2023-06-22T06:12:48;24.83;;;15.82;;
37955;SDS011;23776;51.592;7.180;2023-06-22T06:15:13;24.65;;;15.27;;
37955;SDS011;23776;51.592;7.180;2023-06-22T06:17:49;22.40;;;14.32;;
37955;SDS011;23776;51.592;7.180;2023-06-22T06:20:19;24.25;;;14.63;;
37955;SDS011;23776;51.592;7.180;2023-06-22T06:22:47;28.80;;;16.38;;
37955;SDS011;23776;51.592;7.180;2023-06-22T06:25:13;33.72;;;17.70;;
37955;SDS011;23776;51.592;7.180;2023-06-22T06:27:47;23.50;;;13.68;;
37955;SDS011;23776;51.592;7.180;2023-06-22T06:30:14;22.42;;;14.60;;
37955;SDS011;23776;51.592;7.180;2023-06-22T06:32:42;26.02;;;15.68;;
37955;SDS011;23776;51.592;7.180;2023-06-22T06:35:10;24.92;;;15.73;;
37955;SDS011;23776;51.592;7.180;2023-06-22T06:37:38;25.45;;;16.15;;
37955;SDS011;23776;51.592;7.180;2023-06-22T06:40:05;25.25;;;16.77;;
37955;SDS011;23776;51.592;7.180;2023-06-22T06:42:37;26.67;;;16.70;;
37955;SDS011;23776;51.592;7.180;2023-06-22T06:45:09;26.42;;;15.57;;
37955;SDS011;23776;51.592;7.180;2023-06-22T06:47:40;23.25;;;15.13;;
37955;SDS011;23776;51.592;7.180;2023-06-22T06:50:05;23.80;;;15.75;;
37955;SDS011;23776;51.592;7.180;2023-06-22T06:52:32;19.27;;;12.65;;
37955;SDS011;23776;51.592;7.180;2023-06-22T06:54:58;25.33;;;15.82;;
37955;SDS011;23776;51.592;7.180;2023-06-22T06:57:24;24.75;;;14.43;;
37955;SDS011;23776;51.592;7.180;2023-06-22T06:59:53;23.35;;;14.77;;
37955;SDS011;23776;51.592;7.180;2023-06-22T07:02:20;22.25;;;14.32;;
37955;SDS011;23776;51.592;7.180;2023-06-22T07:04:46;24.33;;;14.98;;
37955;SDS011;23776;51.592;7.180;2023-06-22T07:07:12;23.27;;;15.65;;
37955;SDS011;23776;51.592;7.180;2023-06-22T07:09:37;28.80;;;15.60;;
37955;SDS011;23776;51.592;7.180;2023-06-22T07:12:03;31.35;;;18.05;;
37955;SDS011;23776;51.592;7.180;2023-06-22T07:14:29;26.77;;;15.32;;
37955;SDS011;23776;51.592;7.180;2023-06-22T07:16:56;25.98;;;17.95;;
37955;SDS011;23776;51.592;7.180;2023-06-22T07:19:25;19.80;;;12.98;;
37955;SDS011;23776;51.592;7.180;2023-06-22T07:21:52;32.55;;;17.35;;
37955;SDS011;23776;51.592;7.180;2023-06-22T07:24:19;26.70;;;16.88;;
37955;SDS011;23776;51.592;7.180;2023-06-22T07:26:45;25.00;;;15.73;;
37955;SDS011;23776;51.592;7.180;2023-06-22T07:29:13;24.65;;;16.10;;
37955;SDS011;23776;51.592;7.180;2023-06-22T07:31:39;20.75;;;14.32;;
37955;SDS011;23776;51.592;7.180;2023-06-22T07:34:06;24.05;;;13.85;;
37955;SDS011;23776;51.592;7.180;2023-06-22T07:36:31;23.05;;;15.25;;
37955;SDS011;23776;51.592;7.180;2023-06-22T07:38:57;27.83;;;17.52;;
37955;SDS011;23776;51.592;7.180;2023-06-22T07:41:22;28.80;;;17.58;;
37955;SDS011;23776;51.592;7.180;2023-06-22T07:43:48;27.75;;;15.70;;
37955;SDS011;23776;51.592;7.180;2023-06-22T07:46:14;23.98;;;15.60;;
37955;SDS011;23776;51.592;7.180;2023-06-22T07:48:40;31.58;;;16.65;;
37955;SDS011;23776;51.592;7.180;2023-06-22T07:51:07;26.45;;;15.13;;
37955;SDS011;23776;51.592;7.180;2023-06-22T07:53:32;29.63;;;17.25;;
37955;SDS011;23776;51.592;7.180;2023-06-22T07:55:58;23.02;;;14.93;;
37955;SDS011;23776;51.592;7.180;2023-06-22T07:58:24;24.45;;;14.25;;
37955;SDS011;23776;51.592;7.180;2023-06-22T08:00:49;21.80;;;14.25;;
37955;SDS011;23776;51.592;7.180;2023-06-22T08:03:15;23.85;;;15.90;;
37955;SDS011;23776;51.592;7.180;2023-06-22T08:05:41;30.48;;;16.98;;
37955;SDS011;23776;51.592;7.180;2023-06-22T08:08:06;21.80;;;15.38;;
37955;SDS011;23776;51.592;7.180;2023-06-22T08:10:32;27.05;;;14.95;;
37955;SDS011;23776;51.592;7.180;2023-06-22T08:12:57;23.80;;;15.88;;
37955;SDS011;23776;51.592;7.180;2023-06-22T08:15:23;22.55;;;14.80;;
37955;SDS011;23776;51.592;7.180;2023-06-22T08:17:50;26.73;;;15.73;;
37955;SDS011;23776;51.592;7.180;2023-06-22T08:20:17;28.10;;;18.65;;
37955;SDS011;23776;51.592;7.180;2023-06-22T08:22:43;24.08;;;14.55;;
37955;SDS011;23776;51.592;7.180;2023-06-22T08:25:09;21.08;;;14.15;;
37955;SDS011;23776;51.592;7.180;2023-06-22T08:27:35;28.02;;;18.23;;
37955;SDS011;23776;51.592;7.180;2023-06-22T08:30:01;27.83;;;15.63;;
37955;SDS011;23776;51.592;7.180;2023-06-22T08:32:28;24.80;;;15.77;;
37955;SDS011;23776;51.592;7.180;2023-06-22T08:34:54;26.75;;;17.90;;
37955;SDS011;23776;51.592;7.180;2023-06-22T08:37:20;23.63;;;18.05;;
37955;SDS011;23776;51.592;7.180;2023-06-22T08:39:48;26.50;;;16.20;;
37955;SDS011;23776;51.592;7.180;2023-06-22T08:42:15;26.80;;;17.60;;
37955;SDS011;23776;51.592;7.180;2023-06-22T08:44:41;25.02;;;16.42;;
37955;SDS011;23776;51.592;7.180;2023-06-22T08:47:06;25.70;;;16.50;;
37955;SDS011;23776;51.592;7.180;2023-06-22T08:49:32;26.10;;;16.00;;
37955;SDS011;23776;51.592;7.180;2023-06-22T08:51:57;27.05;;;19.27;;
37955;SDS011;23776;51.592;7.180;2023-06-22T08:54:23;30.25;;;18.65;;
37955;SDS011;23776;51.592;7.180;2023-06-22T08:56:49;29.52;;;18.73;;
37955;SDS011;23776;51.592;7.180;2023-06-22T08:59:14;27.40;;;18.55;;
37955;SDS011;23776;51.592;7.180;2023-06-22T09:01:40;25.88;;;17.00;;
37955;SDS011;23776;51.592;7.180;2023-06-22T09:04:05;23.30;;;15.48;;
37955;SDS011;23776;51.592;7.180;2023-06-22T09:06:34;23.77;;;17.00;;
37955;SDS011;23776;51.592;7.180;2023-06-22T09:08:59;25.20;;;16.83;;
37955;SDS011;23776;51.592;7.180;2023-06-22T09:11:25;25.67;;;18.90;;
37955;SDS011;23776;51.592;7.180;2023-06-22T09:13:51;23.25;;;15.35;;
37955;SDS011;23776;51.592;7.180;2023-06-22T09:16:18;19.65;;;14.23;;
37955;SDS011;23776;51.592;7.180;2023-06-22T09:18:46;22.85;;;15.73;;
37955;SDS011;23776;51.592;7.180;2023-06-22T09:21:12;23.15;;;17.13;;
37955;SDS011;23776;51.592;7.180;2023-06-22T09:23:38;24.73;;;15.10;;
37955;SDS011;23776;51.592;7.180;2023-06-22T09:26:03;25.08;;;18.15;;
37955;SDS011;23776;51.592;7.180;2023-06-22T09:28:30;23.58;;;18.40;;
37955;SDS011;23776;51.592;7.180;2023-06-22T09:30:56;27.42;;;18.33;;
37955;SDS011;23776;51.592;7.180;2023-06-22T09:33:24;26.30;;;16.20;;
37955;SDS011;23776;51.592;7.180;2023-06-22T09:35:50;25.17;;;16.40;;
37955;SDS011;23776;51.592;7.180;2023-06-22T09:38:16;25.95;;;15.77;;
37955;SDS011;23776;51.592;7.180;2023-06-22T09:40:42;23.40;;;16.98;;
37955;SDS011;23776;51.592;7.180;2023-06-22T09:43:08;24.55;;;14.68;;
37955;SDS011;23776;51.592;7.180;2023-06-22T09:45:34;20.00;;;15.27;;
37955;SDS011;23776;51.592;7.180;2023-06-22T09:48:00;24.63;;;15.93;;
37955;SDS011;23776;51.592;7.180;2023-06-22T09:50:25;20.60;;;14.48;;
37955;SDS011;23776;51.592;7.180;2023-06-22T09:52:51;20.75;;;14.90;;
37955;SDS011;23776;51.592;7.180;2023-06-22T09:55:20;21.58;;;14.82;;
37955;SDS011;23776;51.592;7.180;2023-06-22T09:57:46;19.02;;;13.43;;
37955;SDS011;23776;51.592;7.180;2023-06-22T10:00:11;21.08;;;14.18;;
37955;SDS011;23776;51.592;7.180;2023-06-22T10:02:39;17.95;;;13.50;;
37955;SDS011;23776;51.592;7.180;2023-06-22T10:05:05;21.17;;;14.18;;
37955;SDS011;23776;51.592;7.180;2023-06-22T10:07:31;26.23;;;14.48;;
37955;SDS011;23776;51.592;7.180;2023-06-22T10:09:56;21.65;;;12.88;;
37955;SDS011;23776;51.592;7.180;2023-06-22T10:12:22;19.02;;;13.30;;
37955;SDS011;23776;51.592;7.180;2023-06-22T10:14:47;19.38;;;12.20;;
37955;SDS011;23776;51.592;7.180;2023-06-22T10:17:13;19.27;;;13.65;;
37955;SDS011;23776;51.592;7.180;2023-06-22T10:19:38;18.05;;;13.60;;
37955;SDS011;23776;51.592;7.180;2023-06-22T10:22:06;25.38;;;16.15;;
37955;SDS011;23776;51.592;7.180;2023-06-22T10:24:32;18.90;;;12.98;;
37955;SDS011;23776;51.592;7.180;2023-06-22T10:26:57;17.73;;;13.18;;
37955;SDS011;23776;51.592;7.180;2023-06-22T10:29:23;20.13;;;14.43;;
37955;SDS011;23776;51.592;7.180;2023-06-22T10:31:48;24.48;;;14.82;;
37955;SDS011;23776;51.592;7.180;2023-06-22T10:34:14;19.40;;;13.32;;
37955;SDS011;23776;51.592;7.180;2023-06-22T10:36:39;16.40;;;11.98;;
37955;SDS011;23776;51.592;7.180;2023-06-22T10:39:05;18.58;;;13.32;;
37955;SDS011;23776;51.592;7.180;2023-06-22T10:41:31;17.48;;;12.60;;
37955;SDS011;23776;51.592;7.180;2023-06-22T10:43:56;17.63;;;11.65;;
37955;SDS011;23776;51.592;7.180;2023-06-22T10:46:24;15.68;;;12.02;;
37955;SDS011;23776;51.592;7.180;2023-06-22T10:48:50;20.63;;;12.27;;
37955;SDS011;23776;51.592;7.180;2023-06-22T10:51:19;19.88;;;14.35;;
37955;SDS011;23776;51.592;7.180;2023-06-22T10:53:44;17.45;;;12.15;;
37955;SDS011;23776;51.592;7.180;2023-06-22T10:56:10;21.23;;;13.60;;
37955;SDS011;23776;51.592;7.180;2023-06-22T10:58:35;14.20;;;10.30;;
37955;SDS011;23776;51.592;7.180;2023-06-22T11:01:01;17.50;;;12.38;;
37955;SDS011;23776;51.592;7.180;2023-06-22T11:03:28;16.65;;;11.80;;
37955;SDS011;23776;51.592;7.180;2023-06-22T11:05:54;17.15;;;12.43;;
37955;SDS011;23776;51.592;7.180;2023-06-22T11:08:19;16.45;;;11.82;;
37955;SDS011;23776;51.592;7.180;2023-06-22T11:10:45;17.27;;;12.13;;
37955;SDS011;23776;51.592;7.180;2023-06-22T11:13:11;21.92;;;12.27;;
37955;SDS011;23776;51.592;7.180;2023-06-22T11:15:36;20.90;;;14.75;;
37955;SDS011;23776;51.592;7.180;2023-06-22T11:18:03;26.05;;;13.60;;
37955;SDS011;23776;51.592;7.180;2023-06-22T11:20:30;18.13;;;13.07;;
37955;SDS011;23776;51.592;7.180;2023-06-22T11:22:56;21.38;;;15.13;;
37955;SDS011;23776;51.592;7.180;2023-06-22T11:25:22;25.10;;;15.60;;
37955;SDS011;23776;51.592;7.180;2023-06-22T11:27:47;16.27;;;11.68;;
37955;SDS011;23776;51.592;7.180;2023-06-22T11:30:13;16.23;;;11.57;;
37955;SDS011;23776;51.592;7.180;2023-06-22T11:32:38;21.23;;;13.50;;
37955;SDS011;23776;51.592;7.180;2023-06-22T11:35:04;22.08;;;15.63;;
37955;SDS011;23776;51.592;7.180;2023-06-22T11:37:30;28.05;;;18.58;;
37955;SDS011;23776;51.592;7.180;2023-06-22T11:39:56;22.45;;;14.93;;
37955;SDS011;23776;51.592;7.180;2023-06-22T11:42:21;27.92;;;18.10;;
37955;SDS011;23776;51.592;7.180;2023-06-22T11:44:48;23.05;;;16.08;;
37955;SDS011;23776;51.592;7.180;2023-06-22T11:47:14;26.35;;;18.50;;
37955;SDS011;23776;51.592;7.180;2023-06-22T11:49:40;32.45;;;20.75;;
37955;SDS011;23776;51.592;7.180;2023-06-22T11:52:06;24.23;;;17.52;;
37955;SDS011;23776;51.592;7.180;2023-06-22T11:54:32;29.52;;;19.65;;
37955;SDS011;23776;51.592;7.180;2023-06-22T11:56:58;25.98;;;18.77;;
37955;SDS011;23776;51.592;7.180;2023-06-22T11:59:24;35.25;;;21.23;;
37955;SDS011;23776;51.592;7.180;2023-06-22T12:01:49;31.77;;;21.33;;
37955;SDS011;23776;51.592;7.180;2023-06-22T12:04:16;34.45;;;21.52;;
37955;SDS011;23776;51.592;7.180;2023-06-22T12:06:42;31.30;;;20.88;;
37955;SDS011;23776;51.592;7.180;2023-06-22T12:09:08;38.33;;;23.30;;
37955;SDS011;23776;51.592;7.180;2023-06-22T12:11:34;40.75;;;23.98;;
37955;SDS011;23776;51.592;7.180;2023-06-22T12:14:00;33.70;;;22.58;;
37955;SDS011;23776;51.592;7.180;2023-06-22T12:16:27;39.35;;;25.17;;
37955;SDS011;23776;51.592;7.180;2023-06-22T12:18:53;39.78;;;24.67;;
37955;SDS011;23776;51.592;7.180;2023-06-22T12:21:19;41.17;;;25.17;;
37955;SDS011;23776;51.592;7.180;2023-06-22T12:23:45;39.78;;;23.48;;
37955;SDS011;23776;51.592;7.180;2023-06-22T12:26:10;42.00;;;26.60;;
37955;SDS011;23776;51.592;7.180;2023-06-22T12:28:36;38.30;;;24.50;;
37955;SDS011;23776;51.592;7.180;2023-06-22T12:31:02;41.55;;;27.27;;
37955;SDS011;23776;51.592;7.180;2023-06-22T12:33:28;44.38;;;26.75;;
37955;SDS011;23776;51.592;7.180;2023-06-22T12:35:55;39.38;;;24.35;;
37955;SDS011;23776;51.592;7.180;2023-06-22T12:38:21;43.35;;;29.23;;
37955;SDS011;23776;51.592;7.180;2023-06-22T12:40:47;40.10;;;27.27;;
37955;SDS011;23776;51.592;7.180;2023-06-22T12:43:14;41.22;;;25.63;;
37955;SDS011;23776;51.592;7.180;2023-06-22T12:45:40;48.67;;;30.52;;
37955;SDS011;23776;51.592;7.180;2023-06-22T12:48:06;39.42;;;27.45;;
37955;SDS011;23776;51.592;7.180;2023-06-22T12:50:31;42.35;;;25.95;;
37955;SDS011;23776;51.592;7.180;2023-06-22T12:52:57;48.95;;;31.90;;
37955;SDS011;23776;51.592;7.180;2023-06-22T12:55:23;41.33;;;27.58;;
37955;SDS011;23776;51.592;7.180;2023-06-22T12:57:48;42.10;;;28.80;;
37955;SDS011;23776;51.592;7.180;2023-06-22T13:00:14;35.40;;;24.77;;
37955;SDS011;23776;51.592;7.180;2023-06-22T13:02:40;42.72;;;28.60;;
37955;SDS011;23776;51.592;7.180;2023-06-22T13:05:05;39.22;;;26.02;;
37955;SDS011;23776;51.592;7.180;2023-06-22T13:07:31;42.20;;;26.17;;
37955;SDS011;23776;51.592;7.180;2023-06-22T13:09:57;40.10;;;28.52;;
37955;SDS011;23776;51.592;7.180;2023-06-22T13:12:23;36.13;;;25.20;;
37955;SDS011;23776;51.592;7.180;2023-06-22T13:14:48;38.88;;;26.60;;
37955;SDS011;23776;51.592;7.180;2023-06-22T13:17:14;37.20;;;25.55;;
37955;SDS011;23776;51.592;7.180;2023-06-22T13:19:40;37.33;;;23.85;;
37955;SDS011;23776;51.592;7.180;2023-06-22T13:22:09;39.15;;;25.70;;
37955;SDS011;23776;51.592;7.180;2023-06-22T13:24:54;37.22;;;25.20;;
37955;SDS011;23776;51.592;7.180;2023-06-22T13:27:20;40.50;;;26.67;;
37955;SDS011;23776;51.592;7.180;2023-06-22T13:29:46;44.95;;;28.35;;
37955;SDS011;23776;51.592;7.180;2023-06-22T13:32:12;40.80;;;25.50;;
37955;SDS011;23776;51.592;7.180;2023-06-22T13:34:37;37.60;;;26.83;;
37955;SDS011;23776;51.592;7.180;2023-06-22T13:37:03;38.42;;;26.08;;
37955;SDS011;23776;51.592;7.180;2023-06-22T13:39:29;43.78;;;27.58;;
37955;SDS011;23776;51.592;7.180;2023-06-22T13:41:55;40.20;;;25.02;;
37955;SDS011;23776;51.592;7.180;2023-06-22T13:44:21;42.83;;;28.00;;
37955;SDS011;23776;51.592;7.180;2023-06-22T13:46:47;48.63;;;28.10;;
37955;SDS011;23776;51.592;7.180;2023-06-22T13:49:12;36.60;;;24.77;;
37955;SDS011;23776;51.592;7.180;2023-06-22T13:51:38;40.63;;;27.13;;
37955;SDS011;23776;51.592;7.180;2023-06-22T13:54:04;40.63;;;24.55;;
37955;SDS011;23776;51.592;7.180;2023-06-22T13:56:29;40.50;;;26.48;;
37955;SDS011;23776;51.592;7.180;2023-06-22T13:58:55;38.22;;;26.77;;
37955;SDS011;23776;51.592;7.180;2023-06-22T14:01:20;35.92;;;25.10;;
37955;SDS011;23776;51.592;7.180;2023-06-22T14:03:47;36.97;;;25.38;;
37955;SDS011;23776;51.592;7.180;2023-06-22T14:06:13;38.25;;;24.88;;
37955;SDS011;23776;51.592;7.180;2023-06-22T14:08:38;36.33;;;23.58;;
37955;SDS011;23776;51.592;7.180;2023-06-22T14:11:04;38.15;;;24.50;;
37955;SDS011;23776;51.592;7.180;2023-06-22T14:13:30;34.58;;;24.10;;
37955;SDS011;23776;51.592;7.180;2023-06-22T14:15:55;36.67;;;22.75;;
37955;SDS011;23776;51.592;7.180;2023-06-22T14:18:21;37.65;;;22.27;;
37955;SDS011;23776;51.592;7.180;2023-06-22T14:20:49;35.28;;;21.92;;
37955;SDS011;23776;51.592;7.180;2023-06-22T14:23:15;28.10;;;19.65;;